createdAt,value
2017-02-26T00:00:43.736Z,67.48
2017-02-26T00:01:28.426Z,67.99
2017-02-26T00:02:43.709Z,68.31
2017-02-26T00:03:53.579Z,67.85
2017-02-26T00:04:38.501Z,67.57
2017-02-26T00:05:27.207Z,67.87
2017-02-26T00:06:26.521Z,67.07
2017-02-26T00:07:33.782Z,67.54
2017-02-26T00:08:29.035Z,67.31
2017-02-26T00:09:34.014Z,67.57
2017-02-26T00:10:32.458Z,67.07
2017-02-26T00:11:28.205Z,67.41
2017-02-26T00:12:29.583Z,68.26
2017-02-26T00:13:25.519Z,67.52
2017-02-26T00:14:28.624Z,66.64
2017-02-26T00:15:28.784Z,66.83
2017-02-26T00:16:27.187Z,67.27
2017-02-26T00:17:28.391Z,67.27
2017-02-26T00:18:25.446Z,67.76
2017-02-26T00:19:33.847Z,68.14
2017-02-26T00:20:33.163Z,67.38
2017-02-26T00:21:33.769Z,67.43
2017-02-26T00:22:29.889Z,67.25
2017-02-26T00:23:26.550Z,67.76
2017-02-26T00:24:28.905Z,67.69
2017-02-26T00:25:29.455Z,67.61
2017-02-26T00:26:38.737Z,68.26
2017-02-26T00:27:28.449Z,68.82
2017-02-26T00:28:28.657Z,68.22
2017-02-26T00:29:25.506Z,67.87
2017-02-26T00:30:44.726Z,67.74
2017-02-26T00:31:33.547Z,67.84
2017-02-26T00:32:22.721Z,67.42
2017-02-26T00:33:33.646Z,67.11
2017-02-26T00:34:38.262Z,68.05
2017-02-26T00:35:53.843Z,67.60
2017-02-26T00:36:28.775Z,67.61
2017-02-26T00:37:31.986Z,67.94
2017-02-26T00:38:29.178Z,67.61
2017-02-26T00:39:32.932Z,67.39
2017-02-26T00:40:38.287Z,67.93
2017-02-26T00:41:29.262Z,67.84
2017-02-26T00:42:38.514Z,68.23
2017-02-26T00:43:33.855Z,67.35
2017-02-26T00:44:28.964Z,67.52
2017-02-26T00:45:23.529Z,67.44
2017-02-26T00:46:29.433Z,68.08
2017-02-26T00:47:28.542Z,67.36
2017-02-26T00:48:34.182Z,66.74
2017-02-26T00:49:28.272Z,67.54
2017-02-26T00:50:22.459Z,67.74
2017-02-26T00:51:29.488Z,67.76
2017-02-26T00:52:29.282Z,68.25
2017-02-26T00:53:24.704Z,67.49
2017-02-26T00:54:37.402Z,67.75
2017-02-26T00:55:30.628Z,68.64
2017-02-26T00:56:38.741Z,68.20
2017-02-26T00:57:33.958Z,67.95
2017-02-26T00:58:38.199Z,69.02
2017-02-26T00:59:28.243Z,68.26
2017-02-26T01:00:33.803Z,67.47
2017-02-26T01:01:28.920Z,68.53
2017-02-26T01:02:27.035Z,67.62
2017-02-26T01:03:29.592Z,68.31
2017-02-26T01:04:30.179Z,68.39
2017-02-26T01:05:33.907Z,68.81
2017-02-26T01:06:32.672Z,68.84
2017-02-26T01:07:25.334Z,68.71
2017-02-26T01:08:29.523Z,67.83
2017-02-26T01:09:29.644Z,67.17
2017-02-26T01:10:29.654Z,67.62
2017-02-26T01:11:34.466Z,67.29
2017-02-26T01:12:26.607Z,66.84
2017-02-26T01:13:28.819Z,67.30
2017-02-26T01:14:26.282Z,67.92
2017-02-26T01:15:25.324Z,67.59
2017-02-26T01:16:32.594Z,67.59
2017-02-26T01:17:28.267Z,67.48
2017-02-26T01:18:26.326Z,67.98
2017-02-26T01:19:32.186Z,67.92
2017-02-26T01:20:27.741Z,67.25
2017-02-26T01:24:29.994Z,67.95
2017-02-26T01:25:28.117Z,68.36
2017-02-26T01:26:32.435Z,67.30
2017-02-26T01:27:34.032Z,67.05
2017-02-26T01:28:33.272Z,67.82
2017-02-26T01:29:28.916Z,66.61
2017-02-26T01:30:45.249Z,66.77
2017-02-26T01:31:29.272Z,67.81
2017-02-26T01:32:38.794Z,67.11
2017-02-26T01:33:23.165Z,66.85
2017-02-26T01:34:31.058Z,67.68
2017-02-26T01:35:27.798Z,67.04
2017-02-26T01:36:44.246Z,67.30
2017-02-26T01:37:38.009Z,67.89
2017-02-26T01:38:28.178Z,67.54
2017-02-26T01:39:29.644Z,67.72
2017-02-26T01:40:24.894Z,67.73
2017-02-26T01:41:29.509Z,67.31
2017-02-26T01:42:28.638Z,67.93
2017-02-26T01:43:26.550Z,68.05
2017-02-26T01:44:33.737Z,67.44
2017-02-26T01:45:29.645Z,66.36
2017-02-26T01:46:27.050Z,68.10
2017-02-26T01:47:33.253Z,66.98
2017-02-26T01:48:25.727Z,67.88
2017-02-26T01:49:29.256Z,67.74
2017-02-26T01:50:36.698Z,67.90
2017-02-26T01:51:32.007Z,68.23
2017-02-26T01:52:24.568Z,67.41
2017-02-26T01:53:38.521Z,68.30
2017-02-26T01:54:33.260Z,68.33
2017-02-26T01:55:28.336Z,68.14
2017-02-26T01:56:34.424Z,67.51
2017-02-26T01:57:28.449Z,67.55
2017-02-26T01:58:29.312Z,67.84
2017-02-26T01:59:27.932Z,67.47
2017-02-26T02:00:27.234Z,68.09
2017-02-26T02:01:28.325Z,68.65
2017-02-26T02:02:29.373Z,68.01
2017-02-26T02:03:43.035Z,67.64
2017-02-26T02:04:38.737Z,68.13
2017-02-26T02:05:43.267Z,68.40
2017-02-26T02:06:33.414Z,68.01
2017-02-26T02:07:33.266Z,68.95
2017-02-26T02:08:43.593Z,67.73
2017-02-26T02:09:28.177Z,67.44
2017-02-26T02:10:26.626Z,67.81
2017-02-26T02:11:29.388Z,67.93
2017-02-26T02:12:33.298Z,67.36
2017-02-26T02:13:28.345Z,67.01
2017-02-26T02:14:29.786Z,67.96
2017-02-26T02:15:34.388Z,68.31
2017-02-26T02:16:28.471Z,68.60
2017-02-26T02:17:32.807Z,67.54
2017-02-26T02:18:32.354Z,67.13
2017-02-26T02:19:33.174Z,67.19
2017-02-26T02:20:28.451Z,66.94
2017-02-26T02:21:26.508Z,67.77
2017-02-26T02:22:43.367Z,67.60
2017-02-26T02:23:43.362Z,68.56
2017-02-26T02:24:57.146Z,68.40
2017-02-26T02:25:43.364Z,68.18
2017-02-26T02:26:29.517Z,68.79
2017-02-26T02:27:42.719Z,67.93
2017-02-26T02:28:38.736Z,68.64
2017-02-26T02:29:28.151Z,68.94
2017-02-26T02:30:38.741Z,68.73
2017-02-26T02:31:28.272Z,69.00
2017-02-26T02:32:26.552Z,69.00
2017-02-26T02:33:28.063Z,68.91
2017-02-26T02:34:25.773Z,69.20
2017-02-26T02:35:25.303Z,69.52
2017-02-26T02:36:33.472Z,68.80
2017-02-26T02:37:33.618Z,69.15
2017-02-26T02:38:33.204Z,68.77
2017-02-26T02:39:33.157Z,68.90
2017-02-26T02:40:32.987Z,69.26
2017-02-26T02:41:38.107Z,69.00
2017-02-26T02:42:29.214Z,68.16
2017-02-26T02:43:28.292Z,68.10
2017-02-26T02:44:39.167Z,67.55
2017-02-26T02:45:24.911Z,67.88
2017-02-26T02:46:26.777Z,68.15
2017-02-26T02:47:26.780Z,68.43
2017-02-26T02:48:28.686Z,68.26
2017-02-26T02:49:28.800Z,68.39
2017-02-26T02:50:39.337Z,69.37
2017-02-26T02:51:26.570Z,69.51
2017-02-26T02:52:28.047Z,69.41
2017-02-26T02:53:31.109Z,69.91
2017-02-26T02:54:29.745Z,69.26
2017-02-26T02:55:25.414Z,69.41
2017-02-26T02:56:26.471Z,69.89
2017-02-26T02:57:28.904Z,70.44
2017-02-26T02:58:44.003Z,70.82
2017-02-26T02:59:29.902Z,69.81
2017-02-26T03:00:20.216Z,70.43
2017-02-26T03:01:32.353Z,69.65
2017-02-26T03:02:28.416Z,69.86
2017-02-26T03:03:50.713Z,70.25
2017-02-26T03:04:33.940Z,70.14
2017-02-26T03:05:23.428Z,69.54
2017-02-26T03:06:43.723Z,69.74
2017-02-26T03:07:28.859Z,69.87
2017-02-26T03:08:26.306Z,70.09
2017-02-26T03:09:28.158Z,70.55
2017-02-26T03:10:38.165Z,70.54
2017-02-26T03:11:33.206Z,69.22
2017-02-26T03:12:43.668Z,69.87
2017-02-26T03:13:28.784Z,69.53
2017-02-26T03:14:45.052Z,70.21
2017-02-26T03:15:29.717Z,70.33
2017-02-26T03:16:28.929Z,70.03
2017-02-26T03:17:25.537Z,69.82
2017-02-26T03:18:27.200Z,69.50
2017-02-26T03:19:42.884Z,69.36
2017-02-26T03:20:38.481Z,70.47
2017-02-26T03:21:28.582Z,69.75
2017-02-26T03:22:38.363Z,70.37
2017-02-26T03:23:28.205Z,70.01
2017-02-26T03:24:33.342Z,69.11
2017-02-26T03:25:27.449Z,69.06
2017-02-26T03:26:28.849Z,69.51
2017-02-26T03:27:33.759Z,69.70
2017-02-26T03:28:33.166Z,70.53
2017-02-26T03:29:28.957Z,69.93
2017-02-26T03:30:29.410Z,70.08
2017-02-26T03:31:29.365Z,70.31
2017-02-26T03:32:33.102Z,70.70
2017-02-26T03:33:44.934Z,69.53
2017-02-26T03:34:29.130Z,70.09
2017-02-26T03:35:27.178Z,70.59
2017-02-26T03:36:27.830Z,71.23
2017-02-26T03:37:33.610Z,71.27
2017-02-26T03:39:38.026Z,69.99
2017-02-26T03:40:33.375Z,70.27
2017-02-26T03:41:38.398Z,69.47
2017-02-26T03:42:28.702Z,70.16
2017-02-26T03:43:33.696Z,70.13
2017-02-26T03:44:26.702Z,69.57
2017-02-26T03:45:38.689Z,70.13
2017-02-26T03:46:43.691Z,70.65
2017-02-26T03:47:33.540Z,70.68
2017-02-26T03:48:28.614Z,69.99
2017-02-26T03:49:44.635Z,70.20
2017-02-26T03:50:29.757Z,70.83
2017-02-26T03:51:38.186Z,70.01
2017-02-26T03:52:33.168Z,69.91
2017-02-26T03:53:43.686Z,69.65
2017-02-26T03:54:33.208Z,68.94
2017-02-26T03:55:53.313Z,68.43
2017-02-26T03:56:31.596Z,68.97
2017-02-26T03:57:38.000Z,70.11
2017-02-26T03:58:28.150Z,69.27
2017-02-26T03:59:32.587Z,69.36
2017-02-26T04:00:32.649Z,68.78
2017-02-26T04:01:25.470Z,68.49
2017-02-26T04:02:26.565Z,69.45
2017-02-26T04:03:27.275Z,69.10
2017-02-26T04:04:39.323Z,69.34
2017-02-26T04:05:28.990Z,69.66
2017-02-26T04:06:24.586Z,69.71
2017-02-26T04:07:25.658Z,68.97
2017-02-26T04:08:33.006Z,68.35
2017-02-26T04:09:38.286Z,68.56
2017-02-26T04:10:33.398Z,67.94
2017-02-26T04:11:33.310Z,68.62
2017-02-26T04:12:38.450Z,69.07
2017-02-26T04:13:29.586Z,69.77
2017-02-26T04:14:33.221Z,69.77
2017-02-26T04:15:33.317Z,69.56
2017-02-26T04:16:28.832Z,68.12
2017-02-26T04:17:28.958Z,68.24
2017-02-26T04:18:23.427Z,67.69
2017-02-26T04:19:27.961Z,68.61
2017-02-26T04:20:33.810Z,68.31
2017-02-26T04:21:32.949Z,67.81
2017-02-26T04:22:28.834Z,68.06
2017-02-26T04:23:29.408Z,68.09
2017-02-26T04:24:32.309Z,68.24
2017-02-26T04:25:39.073Z,67.62
2017-02-26T04:26:38.446Z,67.80
2017-02-26T04:27:38.670Z,67.64
2017-02-26T04:28:29.550Z,67.47
2017-02-26T04:29:28.731Z,67.25
2017-02-26T04:30:31.372Z,68.59
2017-02-26T04:31:29.482Z,68.73
2017-02-26T04:32:29.614Z,68.35
2017-02-26T04:33:38.941Z,67.38
2017-02-26T04:34:33.203Z,67.94
2017-02-26T04:35:19.790Z,67.38
2017-02-26T04:36:28.947Z,68.40
2017-02-26T04:37:27.013Z,67.95
2017-02-26T04:38:26.857Z,68.13
2017-02-26T04:39:37.843Z,67.50
2017-02-26T04:40:28.016Z,67.72
2017-02-26T04:41:33.072Z,67.42
2017-02-26T04:42:31.960Z,67.33
2017-02-26T04:43:27.127Z,66.76
2017-02-26T04:44:25.887Z,66.89
2017-02-26T04:45:28.790Z,67.86
2017-02-26T04:46:28.726Z,66.94
2017-02-26T04:47:26.539Z,67.14
2017-02-26T04:48:28.827Z,66.86
2017-02-26T04:49:33.368Z,67.44
2017-02-26T04:50:33.181Z,66.80
2017-02-26T04:51:27.196Z,67.52
2017-02-26T04:52:30.010Z,67.01
2017-02-26T04:53:24.183Z,67.43
2017-02-26T04:54:25.277Z,66.76
2017-02-26T04:55:38.679Z,66.12
2017-02-26T04:56:29.669Z,66.54
2017-02-26T04:57:34.072Z,66.06
2017-02-26T04:58:24.157Z,66.63
2017-02-26T04:59:24.210Z,66.07
2017-02-26T05:00:28.351Z,66.05
2017-02-26T05:01:21.496Z,65.92
2017-02-26T05:02:39.363Z,65.47
2017-02-26T05:03:28.389Z,65.34
2017-02-26T05:04:28.201Z,66.16
2017-02-26T05:05:28.457Z,66.36
2017-02-26T05:06:28.485Z,65.53
2017-02-26T05:07:38.274Z,66.19
2017-02-26T05:08:33.109Z,65.70
2017-02-26T05:09:32.653Z,66.51
2017-02-26T05:10:27.521Z,65.97
2017-02-26T05:11:33.812Z,65.91
2017-02-26T05:12:33.255Z,65.93
2017-02-26T05:13:33.250Z,65.91
2017-02-26T05:14:26.021Z,65.82
2017-02-26T05:15:33.339Z,65.61
2017-02-26T05:16:37.203Z,65.27
2017-02-26T05:17:26.696Z,65.54
2017-02-26T05:18:29.628Z,65.25
2017-02-26T05:19:27.687Z,65.44
2017-02-26T05:20:29.437Z,65.19
2017-02-26T05:21:30.194Z,65.71
2017-02-26T05:22:26.904Z,65.49
2017-02-26T05:23:33.193Z,64.88
2017-02-26T05:24:38.193Z,65.71
2017-02-26T05:26:26.654Z,65.13
2017-02-26T05:27:28.773Z,65.06
2017-02-26T05:28:31.788Z,65.89
2017-02-26T05:29:35.953Z,66.14
2017-02-26T05:30:28.040Z,65.93
2017-02-26T05:31:26.445Z,65.49
2017-02-26T05:32:30.468Z,66.38
2017-02-26T05:33:33.724Z,66.35
2017-02-26T05:34:30.232Z,65.78
2017-02-26T05:35:26.514Z,65.80
2017-02-26T05:36:33.246Z,66.20
2017-02-26T05:37:28.420Z,66.02
2017-02-26T05:38:29.652Z,66.17
2017-02-26T05:39:29.793Z,66.70
2017-02-26T05:40:28.848Z,66.28
2017-02-26T05:41:26.054Z,66.64
2017-02-26T05:42:27.155Z,66.48
2017-02-26T05:43:29.760Z,65.58
2017-02-26T05:44:26.008Z,66.73
2017-02-26T05:45:31.245Z,66.75
2017-02-26T05:46:28.300Z,66.79
2017-02-26T05:47:26.133Z,67.13
2017-02-26T05:48:23.175Z,66.68
2017-02-26T05:49:26.474Z,65.86
2017-02-26T05:50:29.626Z,66.41
2017-02-26T05:51:29.758Z,66.24
2017-02-26T05:52:25.444Z,66.19
2017-02-26T05:53:26.494Z,66.10
2017-02-26T05:54:45.437Z,66.16
2017-02-26T05:55:29.552Z,65.36
2017-02-26T05:56:24.857Z,65.88
2017-02-26T05:57:32.802Z,66.44
2017-02-26T05:58:28.748Z,66.21
2017-02-26T05:59:30.398Z,65.80
2017-02-26T06:00:28.512Z,65.37
2017-02-26T06:01:27.213Z,66.01
2017-02-26T06:02:31.634Z,66.27
2017-02-26T06:03:43.915Z,66.42
2017-02-26T06:04:43.788Z,66.58
2017-02-26T06:05:28.895Z,66.41
2017-02-26T06:06:28.523Z,66.84
2017-02-26T06:07:28.264Z,67.02
2017-02-26T06:08:23.504Z,66.21
2017-02-26T06:09:38.474Z,66.24
2017-02-26T06:10:28.599Z,66.59
2017-02-26T06:11:38.321Z,66.72
2017-02-26T06:12:32.664Z,66.65
2017-02-26T06:13:33.707Z,67.30
2017-02-26T06:14:31.870Z,66.44
2017-02-26T06:15:29.062Z,67.69
2017-02-26T06:16:34.066Z,66.52
2017-02-26T06:17:39.183Z,65.28
2017-02-26T06:18:38.340Z,65.77
2017-02-26T06:19:28.241Z,66.83
2017-02-26T06:20:28.775Z,67.04
2017-02-26T06:21:23.866Z,67.01
2017-02-26T06:22:28.526Z,66.97
2017-02-26T06:23:37.733Z,66.54
2017-02-26T06:24:29.135Z,66.64
2017-02-26T06:25:29.113Z,66.69
2017-02-26T06:26:43.307Z,67.31
2017-02-26T06:27:27.482Z,67.16
2017-02-26T06:28:36.673Z,66.21
2017-02-26T06:29:27.244Z,66.59
2017-02-26T06:30:24.315Z,66.26
2017-02-26T06:31:28.431Z,67.47
2017-02-26T06:32:28.683Z,67.12
2017-02-26T06:33:29.725Z,66.60
2017-02-26T06:34:29.943Z,67.04
2017-02-26T06:35:27.718Z,67.89
2017-02-26T06:36:34.005Z,66.83
2017-02-26T06:37:26.179Z,66.56
2017-02-26T06:38:33.332Z,66.31
2017-02-26T06:39:29.430Z,66.48
2017-02-26T06:40:32.086Z,66.43
2017-02-26T06:41:25.847Z,66.43
2017-02-26T06:42:36.750Z,66.82
2017-02-26T06:43:29.318Z,66.72
2017-02-26T06:44:27.647Z,66.91
2017-02-26T06:45:24.723Z,67.28
2017-02-26T06:46:33.882Z,67.36
2017-02-26T06:47:28.564Z,67.23
2017-02-26T06:48:32.191Z,66.64
2017-02-26T06:49:29.342Z,67.80
2017-02-26T06:50:25.259Z,67.89
2017-02-26T06:51:29.385Z,67.59
2017-02-26T06:52:34.909Z,67.36
2017-02-26T06:53:29.038Z,67.85
2017-02-26T06:54:25.754Z,68.04
2017-02-26T06:55:38.387Z,66.91
2017-02-26T06:56:32.210Z,66.23
2017-02-26T06:57:28.868Z,67.55
2017-02-26T06:58:32.065Z,67.16
2017-02-26T06:59:33.796Z,68.12
2017-02-26T07:00:24.371Z,67.47
2017-02-26T07:01:34.401Z,67.50
2017-02-26T07:02:25.906Z,67.30
2017-02-26T07:03:25.205Z,67.76
2017-02-26T07:04:27.680Z,66.24
2017-02-26T07:05:32.860Z,67.00
2017-02-26T07:06:26.635Z,66.19
2017-02-26T07:07:29.451Z,66.14
2017-02-26T07:08:29.500Z,66.63
2017-02-26T07:09:25.316Z,67.38
2017-02-26T07:10:28.510Z,67.52
2017-02-26T07:11:28.385Z,67.36
2017-02-26T07:12:25.982Z,68.45
2017-02-26T07:13:27.221Z,68.17
2017-02-26T07:14:26.841Z,67.40
2017-02-26T07:15:28.971Z,67.30
2017-02-26T07:16:29.063Z,66.94
2017-02-26T07:17:26.914Z,67.01
2017-02-26T07:18:32.016Z,66.76
2017-02-26T07:19:38.753Z,66.05
2017-02-26T07:20:29.830Z,66.84
2017-02-26T07:21:27.472Z,67.23
2017-02-26T07:22:29.582Z,65.56
2017-02-26T07:23:27.492Z,65.33
2017-02-26T07:24:28.622Z,66.71
2017-02-26T07:25:24.851Z,66.00
2017-02-26T07:26:29.613Z,66.12
2017-02-26T07:27:23.703Z,65.51
2017-02-26T07:28:28.587Z,66.12
2017-02-26T07:29:29.633Z,66.12
2017-02-26T07:30:32.748Z,66.52
2017-02-26T07:31:33.759Z,65.55
2017-02-26T07:32:28.833Z,64.78
2017-02-26T07:33:28.970Z,65.99
2017-02-26T07:34:28.134Z,66.91
2017-02-26T07:35:29.909Z,66.91
2017-02-26T07:36:33.486Z,65.24
2017-02-26T07:37:29.675Z,65.39
2017-02-26T07:38:23.470Z,64.36
2017-02-26T07:39:29.357Z,65.31
2017-02-26T07:40:41.212Z,63.39
2017-02-26T07:41:24.661Z,63.19
2017-02-26T07:42:26.295Z,63.09
2017-02-26T07:43:37.320Z,62.45
2017-02-26T07:44:27.803Z,62.84
2017-02-26T07:45:27.262Z,61.84
2017-02-26T07:46:28.006Z,61.86
2017-02-26T07:47:24.116Z,61.42
2017-02-26T07:48:29.383Z,60.77
2017-02-26T07:49:25.090Z,60.99
2017-02-26T07:50:33.516Z,60.67
2017-02-26T07:51:33.703Z,59.70
2017-02-26T07:52:29.019Z,60.14
2017-02-26T07:53:31.528Z,61.37
2017-02-26T07:54:28.668Z,60.34
2017-02-26T07:55:24.800Z,59.79
2017-02-26T07:56:33.130Z,59.06
2017-02-26T07:57:38.046Z,59.21
2017-02-26T07:58:33.501Z,58.04
2017-02-26T07:59:43.734Z,58.26
2017-02-26T08:00:30.460Z,57.87
2017-02-26T08:01:29.558Z,58.45
2017-02-26T08:02:25.165Z,57.90
2017-02-26T08:03:28.282Z,57.78
2017-02-26T08:04:21.284Z,58.62
2017-02-26T08:05:22.914Z,58.54
2017-02-26T08:06:53.764Z,58.90
2017-02-26T08:07:30.873Z,58.11
2017-02-26T08:08:25.455Z,58.92
2017-02-26T08:09:28.056Z,58.61
2017-02-26T08:10:32.962Z,58.31
2017-02-26T08:11:28.888Z,58.41
2017-02-26T08:12:23.903Z,58.18
2017-02-26T08:13:29.031Z,58.91
2017-02-26T08:14:32.004Z,58.50
2017-02-26T08:15:38.518Z,58.68
2017-02-26T08:16:33.287Z,57.98
2017-02-26T08:17:28.481Z,58.51
2017-02-26T08:18:33.593Z,58.15
2017-02-26T08:20:33.683Z,57.26
2017-02-26T08:21:33.814Z,57.15
2017-02-26T08:22:38.211Z,57.82
2017-02-26T08:23:28.077Z,57.41
2017-02-26T08:24:32.178Z,57.47
2017-02-26T08:25:33.279Z,57.66
2017-02-26T08:26:29.889Z,56.53
2017-02-26T08:28:28.209Z,56.88
2017-02-26T08:29:24.306Z,56.22
2017-02-26T08:30:28.448Z,56.26
2017-02-26T08:31:40.787Z,56.52
2017-02-26T08:32:43.122Z,55.65
2017-02-26T08:33:27.485Z,56.23
2017-02-26T08:34:25.713Z,54.97
2017-02-26T08:35:37.700Z,55.13
2017-02-26T08:36:37.480Z,55.13
2017-02-26T08:37:33.398Z,54.84
2017-02-26T08:38:32.827Z,54.91
2017-02-26T08:39:43.772Z,54.44
2017-02-26T08:40:25.881Z,54.17
2017-02-26T08:41:35.144Z,53.74
2017-02-26T08:42:38.325Z,53.53
2017-02-26T08:43:38.312Z,53.52
2017-02-26T08:44:27.013Z,53.27
2017-02-26T08:45:32.917Z,53.20
2017-02-26T08:46:35.984Z,53.29
2017-02-26T08:47:28.782Z,53.12
2017-02-26T08:48:34.549Z,53.09
2017-02-26T08:49:32.140Z,52.26
2017-02-26T08:51:33.040Z,52.50
2017-02-26T08:53:33.110Z,52.14
2017-02-26T08:54:25.593Z,51.79
2017-02-26T08:55:37.245Z,52.02
2017-02-26T08:56:25.500Z,52.31
2017-02-26T08:57:42.994Z,52.03
2017-02-26T08:58:26.685Z,52.53
2017-02-26T08:59:27.823Z,52.57
2017-02-26T09:00:23.324Z,52.56
2017-02-26T09:01:27.963Z,51.96
2017-02-26T09:02:33.301Z,52.52
2017-02-26T09:03:17.904Z,52.35
2017-02-26T09:04:33.140Z,52.23
2017-02-26T09:05:33.152Z,52.45
2017-02-26T09:06:28.500Z,51.85
2017-02-26T09:07:25.138Z,52.29
2017-02-26T09:08:32.596Z,51.80
2017-02-26T09:09:22.758Z,51.65
2017-02-26T09:10:33.478Z,51.65
2017-02-26T09:11:33.598Z,51.40
2017-02-26T09:12:32.752Z,51.28
2017-02-26T09:13:33.360Z,51.27
2017-02-26T09:14:27.750Z,51.47
2017-02-26T09:15:30.512Z,51.27
2017-02-26T09:17:38.854Z,51.26
2017-02-26T09:18:28.223Z,51.02
2017-02-26T09:20:28.299Z,50.70
2017-02-26T09:21:27.960Z,51.00
2017-02-26T09:22:27.645Z,50.58
2017-02-26T09:23:27.164Z,50.52
2017-02-26T09:24:28.256Z,51.20
2017-02-26T09:25:33.494Z,50.68
2017-02-26T09:26:22.001Z,50.70
2017-02-26T09:27:24.519Z,50.64
2017-02-26T09:28:24.257Z,50.61
2017-02-26T09:29:27.057Z,50.80
2017-02-26T09:30:17.524Z,50.66
2017-02-26T09:32:26.121Z,51.41
2017-02-26T09:33:21.203Z,50.52
2017-02-26T09:34:39.447Z,50.79
2017-02-26T09:35:26.513Z,50.58
2017-02-26T09:36:27.820Z,50.85
2017-02-26T09:37:32.867Z,50.90
2017-02-26T09:39:37.883Z,50.42
2017-02-26T09:40:45.749Z,50.30
2017-02-26T09:43:35.330Z,50.67
2017-02-26T09:44:28.827Z,50.12
2017-02-26T09:48:25.942Z,49.83
2017-02-26T09:49:33.013Z,49.69
2017-02-26T09:50:32.217Z,49.54
2017-02-26T09:52:23.950Z,49.22
2017-02-26T09:53:32.230Z,49.28
2017-02-26T09:54:28.837Z,49.47
2017-02-26T09:55:32.487Z,49.11
2017-02-26T09:56:23.433Z,49.49
2017-02-26T09:57:20.104Z,49.50
2017-02-26T09:58:25.482Z,49.16
2017-02-26T09:59:27.821Z,49.35
2017-02-26T10:00:26.688Z,48.71
2017-02-26T10:01:33.708Z,48.66
2017-02-26T10:03:32.710Z,48.79
2017-02-26T10:06:38.123Z,48.43
2017-02-26T10:07:42.838Z,48.23
2017-02-26T10:09:21.138Z,48.56
2017-02-26T10:10:32.783Z,48.30
2017-02-26T10:11:35.012Z,48.09
2017-02-26T10:13:31.437Z,47.91
2017-02-26T10:14:32.709Z,46.94
2017-02-26T10:15:34.908Z,47.62
2017-02-26T10:16:38.510Z,47.33
2017-02-26T10:17:32.713Z,47.13
2017-02-26T10:18:42.554Z,47.10
2017-02-26T10:19:33.710Z,47.09
2017-02-26T10:20:30.230Z,47.35
2017-02-26T10:21:19.215Z,46.86
2017-02-26T10:22:32.478Z,46.83
2017-02-26T10:23:22.929Z,45.95
2017-02-26T10:24:27.944Z,46.50
2017-02-26T10:25:28.226Z,46.56
2017-02-26T10:27:40.670Z,46.75
2017-02-26T10:30:39.282Z,46.39
2017-02-26T10:32:25.440Z,46.67
2017-02-26T10:33:38.473Z,46.35
2017-02-26T10:34:24.953Z,46.44
2017-02-26T10:35:27.814Z,46.09
2017-02-26T10:36:31.630Z,45.99
2017-02-26T10:37:28.846Z,45.78
2017-02-26T10:38:28.937Z,44.69
2017-02-26T10:39:28.715Z,44.36
2017-02-26T10:40:31.993Z,45.05
2017-02-26T10:41:27.660Z,45.12
2017-02-26T10:42:28.156Z,45.12
2017-02-26T10:43:42.333Z,44.87
2017-02-26T10:44:32.716Z,44.49
2017-02-26T10:45:25.331Z,44.24
2017-02-26T10:46:33.642Z,44.55
2017-02-26T10:47:34.097Z,43.78
2017-02-26T10:48:38.644Z,44.44
2017-02-26T10:49:33.263Z,44.17
2017-02-26T10:50:33.182Z,44.29
2017-02-26T10:51:28.314Z,44.37
2017-02-26T10:52:27.943Z,43.61
2017-02-26T10:53:28.960Z,43.49
2017-02-26T10:54:33.203Z,44.11
2017-02-26T10:55:38.721Z,44.12
2017-02-26T10:56:33.170Z,44.12
2017-02-26T10:57:33.391Z,43.01
2017-02-26T10:58:28.171Z,43.20
2017-02-26T10:59:29.668Z,42.64
2017-02-26T11:00:24.934Z,42.69
2017-02-26T11:01:45.450Z,43.05
2017-02-26T11:02:23.692Z,43.36
2017-02-26T11:03:32.511Z,42.85
2017-02-26T11:04:33.612Z,42.60
2017-02-26T11:05:28.700Z,42.54
2017-02-26T11:06:39.183Z,42.16
2017-02-26T11:07:37.673Z,42.40
2017-02-26T11:08:27.184Z,42.56
2017-02-26T11:09:23.949Z,42.25
2017-02-26T11:10:28.212Z,42.43
2017-02-26T11:11:28.839Z,42.26
2017-02-26T11:12:33.950Z,41.82
2017-02-26T11:13:27.574Z,41.52
2017-02-26T11:14:22.605Z,41.08
2017-02-26T11:15:28.990Z,40.61
2017-02-26T11:16:33.128Z,40.64
2017-02-26T11:17:24.367Z,40.69
2017-02-26T11:18:28.989Z,40.23
2017-02-26T11:19:38.201Z,40.00
2017-02-26T11:20:26.299Z,38.42
2017-02-26T11:21:29.703Z,39.06
2017-02-26T11:22:28.696Z,39.64
2017-02-26T11:23:13.820Z,39.35
2017-02-26T11:24:28.479Z,38.84
2017-02-26T11:25:22.452Z,38.62
2017-02-26T11:26:38.463Z,38.84
2017-02-26T11:27:37.588Z,38.82
2017-02-26T11:28:29.461Z,38.52
2017-02-26T11:29:26.696Z,38.37
2017-02-26T11:30:33.466Z,37.51
2017-02-26T11:31:33.503Z,37.80
2017-02-26T11:32:38.735Z,38.22
2017-02-26T11:33:28.609Z,38.01
2017-02-26T11:34:23.713Z,37.88
2017-02-26T11:35:32.067Z,37.71
2017-02-26T11:36:59.598Z,37.90
2017-02-26T11:37:29.722Z,37.17
2017-02-26T11:38:37.853Z,36.74
2017-02-26T11:39:28.640Z,36.55
2017-02-26T11:40:28.515Z,35.97
2017-02-26T11:41:32.515Z,35.69
2017-02-26T11:42:33.752Z,35.92
2017-02-26T11:43:33.255Z,36.06
2017-02-26T11:44:27.258Z,35.46
2017-02-26T11:45:43.840Z,35.20
2017-02-26T11:46:28.936Z,35.46
2017-02-26T11:47:38.738Z,36.03
2017-02-26T11:48:28.486Z,36.37
2017-02-26T11:49:25.358Z,36.45
2017-02-26T11:50:28.537Z,36.11
2017-02-26T11:51:26.775Z,36.49
2017-02-26T11:52:38.976Z,36.57
2017-02-26T11:53:33.382Z,36.74
2017-02-26T11:54:28.566Z,36.17
2017-02-26T11:55:28.759Z,36.49
2017-02-26T11:56:28.767Z,36.44
2017-02-26T11:57:23.426Z,36.74
2017-02-26T11:58:41.658Z,36.54
2017-02-26T11:59:25.281Z,36.60
2017-02-26T12:00:24.878Z,36.54
2017-02-26T12:01:30.990Z,36.50
2017-02-26T12:02:38.468Z,36.19
2017-02-26T12:03:32.869Z,35.81
2017-02-26T12:04:33.142Z,35.66
2017-02-26T12:05:23.626Z,35.98
2017-02-26T12:06:28.066Z,36.22
2017-02-26T12:07:35.213Z,36.64
2017-02-26T12:08:28.425Z,36.34
2017-02-26T12:09:25.228Z,36.48
2017-02-26T12:10:28.885Z,36.05
2017-02-26T12:11:31.865Z,36.37
2017-02-26T12:12:33.291Z,36.80
2017-02-26T12:13:25.112Z,36.55
2017-02-26T12:14:26.847Z,36.64
2017-02-26T12:15:27.171Z,36.49
2017-02-26T12:16:35.562Z,36.50
2017-02-26T12:17:26.763Z,36.70
2017-02-26T12:18:26.324Z,36.81
2017-02-26T12:19:26.015Z,36.92
2017-02-26T12:20:33.749Z,37.54
2017-02-26T12:21:32.745Z,37.62
2017-02-26T12:22:29.843Z,37.81
2017-02-26T12:23:32.090Z,37.22
2017-02-26T12:24:22.855Z,37.32
2017-02-26T12:25:33.826Z,37.24
2017-02-26T12:26:24.777Z,37.23
2017-02-26T12:27:30.912Z,37.53
2017-02-26T12:28:33.014Z,37.67
2017-02-26T12:29:43.091Z,37.64
2017-02-26T12:30:33.909Z,36.57
2017-02-26T12:31:28.049Z,36.66
2017-02-26T12:33:41.749Z,36.67
2017-02-26T12:34:28.797Z,36.62
2017-02-26T12:35:27.260Z,36.43
2017-02-26T12:42:33.050Z,36.60
2017-02-26T12:43:30.160Z,36.70
2017-02-26T12:45:33.056Z,37.42
2017-02-26T12:46:42.325Z,37.41
2017-02-26T12:47:28.821Z,37.42
2017-02-26T12:48:20.939Z,37.43
2017-02-26T12:49:29.110Z,37.54
2017-02-26T12:50:24.287Z,37.80
2017-02-26T12:51:39.132Z,37.71
2017-02-26T12:52:32.620Z,38.30
2017-02-26T12:54:25.365Z,38.36
2017-02-26T12:55:29.101Z,38.27
2017-02-26T12:56:33.955Z,38.11
2017-02-26T12:57:33.399Z,38.35
2017-02-26T12:58:29.509Z,38.34
2017-02-26T12:59:22.125Z,37.96
2017-02-26T13:00:28.219Z,37.78
2017-02-26T13:05:32.478Z,37.78
2017-02-26T13:06:37.998Z,37.04
2017-02-26T13:07:27.004Z,37.15
2017-02-26T13:08:43.018Z,37.60
2017-02-26T13:09:44.159Z,37.62
2017-02-26T13:10:41.317Z,37.79
2017-02-26T13:11:29.357Z,37.85
2017-02-26T13:13:33.713Z,36.86
2017-02-26T13:14:38.228Z,36.82
2017-02-26T13:15:28.440Z,36.21
2017-02-26T13:17:23.506Z,36.84
2017-02-26T13:18:25.082Z,36.67
2017-02-26T13:19:23.991Z,36.76
2017-02-26T13:20:32.053Z,35.81
2017-02-26T13:21:26.625Z,35.84
2017-02-26T13:22:33.871Z,35.76
2017-02-26T13:23:44.225Z,35.56
2017-02-26T13:24:27.530Z,35.71
2017-02-26T13:25:28.653Z,35.64
2017-02-26T13:26:37.805Z,35.41
2017-02-26T13:27:27.560Z,35.04
2017-02-26T13:28:18.822Z,35.31
2017-02-26T13:29:26.567Z,35.32
2017-02-26T13:30:28.233Z,35.26
2017-02-26T13:31:28.385Z,35.22
2017-02-26T13:32:29.169Z,34.95
2017-02-26T13:33:32.265Z,35.20
2017-02-26T13:34:29.212Z,35.23
2017-02-26T13:37:48.531Z,35.39